createdAt,value
2019-05-18T00:00:22.611Z,75.40
2019-05-18T00:02:53.417Z,75.50
2019-05-18T00:05:24.260Z,76.00
2019-05-18T00:07:55.178Z,76.50
2019-05-18T00:10:26.015Z,76.80
2019-05-18T00:12:56.936Z,77.10
2019-05-18T00:15:27.757Z,77.20
2019-05-18T00:17:58.620Z,77.30
2019-05-18T00:20:29.474Z,77.30
2019-05-18T00:23:00.300Z,78.00
2019-05-18T00:25:31.108Z,77.10
2019-05-18T00:28:01.943Z,76.70
2019-05-18T00:30:32.720Z,76.70
2019-05-18T00:33:03.608Z,76.70
2019-05-18T00:35:35.478Z,76.80
2019-05-18T00:38:06.407Z,77.10
2019-05-18T00:40:37.255Z,77.40
2019-05-18T00:43:08.073Z,77.50
2019-05-18T00:45:38.838Z,77.70
2019-05-18T00:48:09.776Z,78.50
2019-05-18T00:50:40.547Z,77.80
2019-05-18T00:53:11.456Z,77.70
2019-05-18T00:55:42.216Z,77.70
2019-05-18T00:58:13.065Z,78.00
2019-05-18T01:00:43.855Z,77.80
2019-05-18T01:03:14.657Z,77.90
2019-05-18T01:05:46.537Z,77.80
2019-05-18T01:08:17.360Z,77.50
2019-05-18T01:10:48.124Z,77.40
2019-05-18T01:13:18.918Z,77.30
2019-05-18T01:15:49.686Z,77.40
2019-05-18T01:18:20.459Z,77.70
2019-05-18T01:20:52.620Z,77.90
2019-05-18T01:23:26.348Z,78.00
2019-05-18T01:25:57.228Z,77.70
2019-05-18T01:28:29.354Z,77.40
2019-05-18T01:31:00.117Z,77.50
2019-05-18T01:33:30.972Z,77.40
2019-05-18T01:36:01.765Z,77.20
2019-05-18T01:38:32.697Z,77.20
2019-05-18T01:41:03.537Z,77.40
2019-05-18T01:43:34.444Z,77.20
2019-05-18T01:46:05.279Z,77.30
2019-05-18T01:48:36.187Z,77.50
2019-05-18T01:51:07.067Z,77.20
2019-05-18T01:53:37.890Z,77.00
2019-05-18T01:56:08.677Z,77.00
2019-05-18T01:58:39.442Z,77.10
2019-05-18T02:01:10.208Z,76.70
2019-05-18T02:03:41.029Z,76.40
2019-05-18T02:06:11.839Z,77.20
2019-05-18T02:08:42.708Z,76.50
2019-05-18T02:11:13.573Z,76.60
2019-05-18T02:13:44.456Z,76.70
2019-05-18T02:16:15.308Z,76.70
2019-05-18T02:18:46.176Z,76.90
2019-05-18T02:21:16.955Z,77.30
2019-05-18T02:23:47.786Z,76.70
2019-05-18T02:26:18.575Z,76.50
2019-05-18T02:28:49.377Z,76.60
2019-05-18T02:31:20.259Z,76.80
2019-05-18T02:33:51.068Z,76.90
2019-05-18T02:36:24.653Z,77.00
2019-05-18T02:38:55.551Z,76.90
2019-05-18T02:41:26.404Z,76.80
2019-05-18T02:43:57.254Z,76.50
2019-05-18T02:46:27.998Z,76.20
2019-05-18T02:48:58.965Z,76.00
2019-05-18T02:51:29.750Z,76.20
2019-05-18T02:54:00.626Z,76.30
2019-05-18T02:56:31.367Z,76.20
2019-05-18T02:59:02.263Z,77.20
2019-05-18T03:01:33.390Z,76.60
2019-05-18T03:04:04.598Z,76.70
2019-05-18T03:06:35.429Z,76.90
2019-05-18T03:09:07.549Z,76.80
2019-05-18T03:11:38.341Z,76.90
2019-05-18T03:14:09.158Z,77.00
2019-05-18T03:16:39.950Z,77.40
2019-05-18T03:19:10.734Z,78.10
2019-05-18T03:21:41.922Z,78.40
2019-05-18T03:24:12.764Z,78.30
2019-05-18T03:26:43.546Z,78.40
2019-05-18T03:29:15.043Z,78.50
2019-05-18T03:31:45.954Z,78.60
2019-05-18T03:34:16.757Z,78.50
2019-05-18T03:36:47.618Z,78.40
2019-05-18T03:39:18.416Z,78.50
2019-05-18T03:41:49.191Z,78.30
2019-05-18T03:44:19.994Z,78.00
2019-05-18T03:46:50.728Z,77.70
2019-05-18T03:49:27.040Z,77.70
2019-05-18T03:51:53.982Z,77.80
2019-05-18T03:54:24.898Z,77.90
2019-05-18T03:56:55.762Z,77.60
2019-05-18T03:59:26.570Z,77.80
2019-05-18T04:01:57.341Z,78.00
2019-05-18T04:04:28.158Z,78.90
2019-05-18T04:06:58.908Z,78.40
2019-05-18T04:09:29.757Z,77.90
2019-05-18T04:12:00.509Z,77.60
2019-05-18T04:14:31.418Z,77.60
2019-05-18T04:17:02.292Z,77.60
2019-05-18T04:19:45.841Z,77.70
2019-05-18T04:22:05.659Z,77.60
2019-05-18T04:24:36.520Z,77.60
2019-05-18T04:27:07.389Z,77.50
2019-05-18T04:29:38.261Z,77.20
2019-05-18T04:32:09.048Z,76.70
2019-05-18T04:34:39.864Z,76.90
2019-05-18T04:37:13.734Z,77.00
2019-05-18T04:39:45.638Z,77.10
2019-05-18T04:42:16.369Z,77.10
2019-05-18T04:44:47.178Z,76.50
2019-05-18T04:47:17.958Z,76.50
2019-05-18T04:50:03.843Z,76.60
2019-05-18T04:52:21.207Z,76.80
2019-05-18T04:54:52.119Z,76.90
2019-05-18T04:57:22.959Z,76.90
2019-05-18T04:59:53.858Z,76.60
2019-05-18T05:02:25.136Z,76.00
2019-05-18T05:04:56.690Z,75.70
2019-05-18T05:07:27.729Z,76.20
2019-05-18T05:09:58.558Z,76.30
2019-05-18T05:12:29.508Z,76.50
2019-05-18T05:15:00.379Z,76.40
2019-05-18T05:17:31.125Z,75.50
2019-05-18T05:20:02.857Z,75.70
2019-05-18T05:22:38.338Z,75.80
2019-05-18T05:25:11.996Z,76.20
2019-05-18T05:27:43.759Z,76.10
2019-05-18T05:30:18.911Z,76.00
2019-05-18T05:32:51.243Z,75.80
2019-05-18T05:35:22.475Z,75.80
2019-05-18T05:37:53.605Z,75.60
2019-05-18T05:40:24.785Z,75.60
2019-05-18T05:42:55.530Z,76.30
2019-05-18T05:45:26.383Z,76.80
2019-05-18T05:47:57.499Z,77.30
2019-05-18T05:50:35.799Z,77.40
2019-05-18T05:53:02.689Z,77.70
2019-05-18T05:55:33.568Z,77.30
2019-05-18T05:58:04.790Z,77.00
2019-05-18T06:00:36.514Z,76.70
2019-05-18T06:03:08.577Z,76.50
2019-05-18T06:05:40.849Z,75.70
2019-05-18T06:08:12.138Z,75.60
2019-05-18T06:10:43.966Z,75.70
2019-05-18T06:13:15.538Z,74.90
2019-05-18T06:15:47.184Z,75.10
2019-05-18T06:18:18.144Z,75.20
2019-05-18T06:20:51.607Z,74.40
2019-05-18T06:23:21.407Z,73.70
2019-05-18T06:25:53.130Z,73.80
2019-05-18T06:28:24.118Z,73.60
2019-05-18T06:30:54.968Z,72.10
2019-05-18T06:33:25.760Z,71.90
2019-05-18T06:35:57.484Z,72.00
2019-05-18T06:38:29.350Z,72.30
2019-05-18T06:41:01.165Z,72.30
2019-05-18T06:43:32.913Z,72.10
2019-05-18T06:46:05.764Z,72.50
2019-05-18T06:48:37.447Z,70.60
2019-05-18T06:51:09.363Z,69.60
2019-05-18T06:53:42.283Z,69.40
2019-05-18T06:56:14.995Z,68.90
2019-05-18T06:58:47.722Z,68.00
2019-05-18T07:01:19.501Z,67.40
2019-05-18T07:03:51.308Z,66.60
2019-05-18T07:06:22.164Z,66.80
2019-05-18T07:08:52.936Z,66.50
2019-05-18T07:11:26.830Z,65.80
2019-05-18T07:13:57.638Z,65.00
2019-05-18T07:16:29.337Z,64.80
2019-05-18T07:19:00.157Z,63.90
2019-05-18T07:21:31.923Z,63.60
2019-05-18T07:24:04.617Z,63.10
2019-05-18T07:26:35.812Z,61.90
2019-05-18T07:29:07.543Z,60.80
2019-05-18T07:31:39.196Z,60.80
2019-05-18T07:34:11.132Z,60.30
2019-05-18T07:36:42.338Z,59.20
2019-05-18T07:39:13.265Z,57.60
2019-05-18T07:41:47.073Z,57.40
2019-05-18T07:44:19.136Z,55.70
2019-05-18T07:46:50.158Z,54.80
2019-05-18T07:49:21.208Z,54.20
2019-05-18T07:51:51.982Z,54.30
2019-05-18T07:54:23.586Z,52.40
2019-05-18T07:56:55.644Z,52.10
2019-05-18T07:59:27.235Z,52.10
2019-05-18T08:01:58.537Z,52.70
2019-05-18T08:04:29.521Z,53.20
2019-05-18T08:07:00.595Z,54.30
2019-05-18T08:09:31.446Z,55.40
2019-05-18T08:12:02.354Z,55.80
2019-05-18T08:14:33.130Z,55.10
2019-05-18T08:17:03.988Z,55.60
2019-05-18T08:19:34.726Z,55.20
2019-05-18T08:22:05.533Z,54.60
2019-05-18T08:24:36.327Z,55.00
2019-05-18T08:27:08.346Z,55.40
2019-05-18T08:29:43.377Z,54.50
2019-05-18T08:32:14.384Z,54.20
2019-05-18T08:34:49.384Z,54.00
2019-05-18T08:37:20.323Z,54.00
2019-05-18T08:39:51.282Z,55.40
2019-05-18T08:42:22.213Z,56.40
2019-05-18T08:44:53.143Z,56.10
2019-05-18T08:47:23.966Z,56.60
2019-05-18T08:49:54.764Z,57.00
2019-05-18T08:52:25.631Z,57.40
2019-05-18T08:54:56.394Z,58.20
2019-05-18T08:57:27.276Z,59.80
2019-05-18T08:59:58.174Z,59.90
2019-05-18T09:02:30.147Z,60.70
2019-05-18T09:05:04.635Z,59.80
2019-05-18T09:07:33.422Z,59.30
2019-05-18T09:10:04.225Z,59.70
2019-05-18T09:12:35.384Z,60.90
2019-05-18T09:15:06.905Z,62.10
2019-05-18T09:17:38.079Z,61.20
2019-05-18T09:20:10.057Z,61.60
2019-05-18T09:22:41.635Z,61.20
2019-05-18T09:25:12.837Z,60.90
2019-05-18T09:27:43.682Z,61.70
2019-05-18T09:30:14.745Z,61.60
2019-05-18T09:32:45.667Z,62.10
2019-05-18T09:35:16.673Z,62.50
2019-05-18T09:37:47.502Z,62.90
2019-05-18T09:40:19.442Z,64.00
2019-05-18T09:42:50.370Z,63.70
2019-05-18T09:45:21.868Z,63.70
2019-05-18T09:47:53.698Z,63.90
2019-05-18T09:50:24.632Z,65.00
2019-05-18T09:52:55.868Z,64.80
2019-05-18T09:55:26.735Z,64.50
2019-05-18T09:57:58.284Z,65.50
2019-05-18T10:00:36.995Z,66.50
2019-05-18T10:03:01.997Z,67.20
2019-05-18T10:05:32.938Z,68.70
2019-05-18T10:08:03.963Z,70.00
2019-05-18T10:10:34.809Z,70.80
2019-05-18T10:13:06.547Z,71.60
2019-05-18T10:15:38.579Z,72.40
2019-05-18T10:18:09.750Z,72.50
2019-05-18T10:20:40.615Z,73.10
2019-05-18T10:23:13.595Z,73.90
2019-05-18T10:25:44.342Z,74.00
2019-05-18T10:28:15.350Z,74.40
2019-05-18T10:30:46.221Z,74.60
2019-05-18T10:33:17.061Z,75.00
2019-05-18T10:35:47.917Z,75.60
2019-05-18T10:38:18.836Z,75.70
2019-05-18T10:40:49.630Z,76.30
2019-05-18T10:43:20.522Z,76.80
2019-05-18T10:45:51.440Z,77.40
2019-05-18T10:48:22.567Z,77.90
2019-05-18T10:50:53.444Z,78.60
2019-05-18T10:53:28.804Z,78.60
2019-05-18T10:55:57.175Z,79.10
2019-05-18T10:58:30.413Z,79.20
2019-05-18T11:01:02.212Z,79.20
2019-05-18T11:03:33.015Z,79.30
2019-05-18T11:06:42.706Z,79.80
2019-05-18T11:09:30.112Z,80.10
2019-05-18T11:12:18.546Z,79.90
2019-05-18T11:18:12.018Z,80.30
2019-05-18T11:20:43.963Z,81.70
2019-05-18T11:23:17.708Z,82.40
2019-05-18T11:25:48.592Z,80.80
2019-05-18T11:28:19.465Z,80.30
2019-05-18T11:30:51.306Z,80.10
2019-05-18T11:33:23.027Z,79.50
2019-05-18T11:35:53.949Z,78.40
2019-05-18T11:38:24.817Z,78.10
2019-05-18T11:40:55.661Z,77.90
2019-05-18T11:43:27.313Z,76.30
2019-05-18T11:45:58.212Z,76.20
2019-05-18T11:48:29.725Z,75.50
2019-05-18T11:51:01.233Z,73.40
2019-05-18T11:53:34.873Z,70.90
2019-05-18T11:56:05.951Z,69.60
2019-05-18T11:58:37.468Z,69.50
2019-05-18T12:01:09.171Z,69.30
2019-05-18T12:03:40.639Z,68.10
2019-05-18T12:06:11.693Z,67.20
2019-05-18T12:08:43.364Z,65.60
2019-05-18T12:11:16.693Z,65.30
2019-05-18T12:13:48.960Z,65.80
2019-05-18T12:16:20.676Z,63.30
2019-05-18T12:18:52.475Z,64.20
2019-05-18T12:21:23.307Z,63.60
2019-05-18T12:23:54.607Z,63.80
2019-05-18T12:26:32.351Z,62.20
2019-05-18T12:29:06.201Z,63.80
2019-05-18T12:31:38.517Z,62.90
2019-05-18T12:34:10.139Z,62.30
2019-05-18T12:36:41.859Z,59.80
2019-05-18T12:39:12.761Z,60.40
2019-05-18T12:41:44.369Z,59.10
2019-05-18T12:44:15.885Z,58.80
2019-05-18T12:46:47.653Z,57.60
2019-05-18T12:49:18.553Z,57.00
2019-05-18T12:51:50.566Z,56.10
2019-05-18T12:54:30.854Z,57.00
2019-05-18T12:56:55.086Z,57.40
2019-05-18T12:59:26.436Z,58.30
2019-05-18T13:01:59.400Z,60.30
2019-05-18T13:04:30.388Z,61.10
2019-05-18T13:07:01.598Z,61.70
2019-05-18T13:09:32.414Z,63.30
2019-05-18T13:12:03.928Z,64.70
2019-05-18T13:14:35.317Z,65.50
2019-05-18T13:17:06.678Z,65.70
2019-05-18T13:19:38.328Z,67.40
2019-05-18T13:22:09.781Z,66.70
2019-05-18T13:24:45.399Z,67.80
2019-05-18T13:27:14.416Z,66.00
2019-05-18T13:29:46.566Z,66.30
2019-05-18T13:32:21.775Z,67.00
2019-05-18T13:34:59.385Z,67.20
2019-05-18T13:37:30.686Z,65.90
2019-05-18T13:40:01.664Z,65.70
2019-05-18T13:42:33.279Z,65.50
2019-05-18T13:45:04.858Z,65.60
2019-05-18T13:47:35.946Z,64.40
2019-05-18T13:50:07.337Z,64.30
2019-05-18T13:52:38.767Z,64.50
2019-05-18T13:55:13.114Z,64.60
2019-05-18T13:57:57.211Z,63.70
2019-05-18T14:00:29.323Z,63.90
2019-05-18T14:03:00.531Z,65.30
2019-05-18T14:05:40.868Z,64.60
2019-05-18T14:08:15.798Z,65.00
2019-05-18T14:10:47.320Z,64.10
2019-05-18T14:13:18.645Z,66.00
2019-05-18T14:16:01.728Z,64.10
2019-05-18T14:18:46.881Z,64.60
2019-05-18T14:21:30.781Z,64.90
2019-05-18T14:24:02.019Z,66.00
2019-05-18T14:26:33.780Z,65.30
2019-05-18T14:29:05.569Z,65.00
2019-05-18T14:31:36.616Z,65.90
2019-05-18T14:34:07.995Z,66.20
2019-05-18T14:36:40.409Z,65.30
2019-05-18T14:39:23.185Z,64.70
2019-05-18T15:09:35.911Z,51.60
2019-05-18T15:15:33.278Z,50.40
2019-05-18T15:31:15.739Z,52.70
2019-05-18T15:37:36.925Z,54.60
2019-05-18T15:56:05.751Z,57.40
2019-05-18T16:01:57.580Z,59.80
2019-05-18T16:14:13.705Z,58.40
2019-05-18T16:16:48.073Z,58.10
2019-05-18T16:19:20.316Z,58.50
2019-05-18T16:21:51.235Z,58.40
2019-05-18T16:24:23.800Z,56.40
2019-05-18T16:29:48.659Z,56.40
2019-05-18T16:32:21.803Z,57.90
2019-05-18T16:34:53.183Z,57.90
2019-05-18T16:37:42.474Z,58.30
2019-05-18T16:40:14.192Z,57.30
2019-05-18T16:42:46.720Z,57.20
2019-05-18T16:45:18.848Z,56.70
2019-05-18T16:47:49.717Z,56.40
2019-05-18T16:50:20.910Z,56.50
2019-05-18T16:52:51.972Z,56.30
2019-05-18T16:55:24.086Z,56.30
2019-05-18T16:57:54.843Z,56.20
2019-05-18T17:00:27.148Z,55.80
2019-05-18T17:03:03.428Z,56.00
2019-05-18T17:05:34.261Z,56.20
2019-05-18T17:08:05.761Z,56.20
2019-05-18T17:10:36.786Z,56.30
2019-05-18T17:13:08.007Z,56.50
2019-05-18T17:15:39.429Z,56.50
2019-05-18T17:18:12.058Z,56.50
2019-05-18T17:20:43.393Z,55.90
2019-05-18T17:23:14.984Z,55.10
2019-05-18T17:25:48.775Z,56.10
2019-05-18T17:28:19.756Z,56.30
2019-05-18T17:30:50.762Z,55.60
2019-05-18T17:33:21.573Z,55.10
2019-05-18T17:36:00.290Z,55.80
2019-05-18T17:38:25.376Z,57.00
2019-05-18T17:40:56.435Z,57.50
2019-05-18T17:43:28.184Z,57.80
2019-05-18T17:45:59.015Z,58.10
2019-05-18T17:48:30.093Z,58.20
2019-05-18T17:51:01.046Z,58.70
2019-05-18T17:53:31.801Z,59.20
2019-05-18T17:56:02.630Z,59.70
2019-05-18T17:58:33.522Z,60.00
2019-05-18T18:01:04.352Z,60.40
2019-05-18T18:03:36.134Z,60.90
2019-05-18T18:06:07.770Z,61.30
2019-05-18T18:08:39.539Z,61.30
2019-05-18T18:11:11.934Z,62.30
2019-05-18T18:13:43.101Z,62.90
2019-05-18T18:16:15.504Z,63.20
2019-05-18T18:18:46.406Z,63.70
2019-05-18T18:21:18.483Z,64.00
2019-05-18T18:23:54.863Z,64.50
2019-05-18T18:26:32.963Z,64.90
2019-05-18T18:29:04.398Z,65.40
2019-05-18T18:31:35.362Z,66.80
2019-05-18T18:34:07.173Z,66.10
2019-05-18T18:36:38.769Z,66.40
2019-05-18T18:39:09.715Z,66.80
2019-05-18T18:41:41.286Z,67.30
2019-05-18T18:44:12.848Z,68.00
2019-05-18T18:46:43.599Z,68.30
2019-05-18T18:49:15.248Z,68.40
2019-05-18T18:51:46.848Z,69.00
2019-05-18T18:54:17.557Z,69.50
2019-05-18T18:56:54.225Z,70.00
2019-05-18T18:59:31.026Z,70.20
2019-05-18T19:02:03.590Z,70.20
2019-05-18T19:04:35.689Z,70.50
2019-05-18T19:07:09.202Z,71.40
2019-05-18T19:09:40.341Z,70.60
2019-05-18T19:12:11.330Z,70.60
2019-05-18T19:14:43.174Z,70.70
2019-05-18T19:17:14.788Z,71.20
2019-05-18T19:19:49.084Z,71.30
2019-05-18T19:22:28.060Z,72.10
2019-05-18T19:24:58.953Z,72.60
2019-05-18T19:27:30.434Z,72.80
2019-05-18T19:30:01.323Z,72.90
2019-05-18T19:32:32.816Z,72.80
2019-05-18T19:35:03.697Z,73.10
2019-05-18T19:37:35.647Z,73.10
2019-05-18T19:40:08.478Z,73.00
2019-05-18T19:42:40.101Z,72.00
2019-05-18T19:45:11.444Z,72.40
2019-05-18T19:47:42.958Z,72.70
2019-05-18T19:50:14.166Z,73.00
2019-05-18T19:52:45.656Z,73.00
2019-05-18T19:55:18.313Z,73.00
2019-05-18T19:57:49.788Z,72.70
2019-05-18T20:00:20.819Z,72.70
2019-05-18T20:02:51.695Z,72.60
2019-05-18T20:05:22.525Z,72.50
2019-05-18T20:08:00.478Z,72.50
2019-05-18T20:10:57.361Z,72.50
2019-05-18T20:13:47.003Z,72.60
2019-05-18T20:19:39.021Z,72.50
2019-05-18T20:22:07.467Z,73.00
2019-05-18T20:24:38.349Z,72.80
2019-05-18T20:27:09.369Z,72.80
2019-05-18T20:29:40.946Z,72.70
2019-05-18T20:32:12.585Z,73.10
2019-05-18T20:34:47.070Z,73.40
2019-05-18T20:37:21.948Z,73.60
2019-05-18T20:39:53.705Z,73.60
2019-05-18T20:42:25.258Z,73.40
2019-05-18T20:44:56.956Z,73.40
2019-05-18T20:47:29.055Z,73.10
2019-05-18T20:50:10.552Z,72.80
2019-05-18T20:52:43.866Z,72.50
2019-05-18T20:59:33.960Z,72.60
2019-05-18T21:02:06.619Z,72.00
2019-05-18T21:04:40.419Z,72.60
2019-05-18T21:07:11.625Z,72.70
2019-05-18T21:09:43.896Z,72.70
2019-05-18T21:12:17.736Z,72.40
2019-05-18T21:14:49.051Z,72.70
2019-05-18T21:17:19.826Z,72.30
2019-05-18T21:19:50.737Z,72.00
2019-05-18T21:22:21.593Z,72.30
2019-05-18T21:24:52.474Z,72.40
2019-05-18T21:27:23.277Z,72.50
2019-05-18T21:29:54.161Z,72.40
2019-05-18T21:32:25.246Z,72.20
2019-05-18T21:34:59.951Z,72.40
2019-05-18T21:37:31.662Z,72.40
2019-05-18T21:40:03.358Z,72.20
2019-05-18T21:42:34.642Z,72.10
2019-05-18T21:45:07.164Z,71.50
2019-05-18T21:47:40.311Z,71.50
2019-05-18T21:50:12.391Z,71.80
2019-05-18T21:52:45.275Z,71.90
2019-05-18T21:57:54.947Z,71.90
2019-05-18T22:00:29.650Z,71.80
2019-05-18T22:03:03.755Z,71.70
2019-05-18T22:05:35.646Z,71.80
2019-05-18T22:08:07.427Z,71.90
2019-05-18T22:10:40.119Z,71.40
2019-05-18T22:13:11.918Z,71.60
2019-05-18T22:15:43.435Z,72.00
2019-05-18T22:18:24.027Z,72.40
2019-05-18T22:20:47.682Z,72.50
2019-05-18T22:23:19.559Z,72.50
2019-05-18T22:25:51.434Z,72.30
2019-05-18T22:28:23.463Z,72.40
2019-05-18T22:30:55.313Z,72.50
2019-05-18T22:33:26.525Z,72.70
2019-05-18T22:35:57.625Z,72.40
2019-05-18T22:38:28.854Z,72.40
2019-05-18T22:40:59.903Z,72.30
2019-05-18T22:43:30.889Z,72.30
2019-05-18T22:46:03.303Z,72.30
2019-05-18T22:48:41.261Z,72.40
2019-05-18T22:51:07.828Z,72.80
2019-05-18T22:53:38.711Z,73.70
2019-05-18T22:56:09.876Z,74.30
2019-05-18T22:58:40.787Z,74.70
2019-05-18T23:01:11.793Z,74.80
2019-05-18T23:03:42.719Z,74.60
2019-05-18T23:06:13.666Z,74.30
2019-05-18T23:08:44.577Z,74.30
2019-05-18T23:11:16.595Z,74.60
2019-05-18T23:13:47.524Z,74.30
2019-05-18T23:16:19.626Z,74.10
2019-05-18T23:18:56.719Z,74.50
2019-05-18T23:21:23.422Z,74.80
2019-05-18T23:23:54.396Z,74.70
2019-05-18T23:26:25.271Z,74.60
2019-05-18T23:28:56.171Z,74.30
2019-05-18T23:31:27.097Z,74.20
2019-05-18T23:33:58.025Z,74.30
2019-05-18T23:36:29.098Z,74.40
2019-05-18T23:39:00.066Z,74.00
2019-05-18T23:41:31.235Z,73.40
2019-05-18T23:44:02.220Z,73.60
2019-05-18T23:46:33.099Z,73.70
2019-05-18T23:49:10.886Z,73.50
2019-05-18T23:51:36.579Z,73.40
2019-05-18T23:54:07.589Z,73.60
2019-05-18T23:56:38.602Z,73.40
2019-05-18T23:59:10.583Z,73.20
